UGSB/BUS METAR and TAF weather

Enter ICAO airport designator
Station Type Date Time Source
UGSB METAR 2019/08/20 10:00 UTC NOAA

UGSB 201000Z 24007KT 200V260 9999 FEW023 BKN040 26/22 Q1015 NOSIG


Station Type Date Time Source
UGSB Decoded METAR 2019/08/20 10:00 UTC NOAA

Station name not available
Aug 20, 2019 - 06:00 AM EDT / 2019.08.20 1000 UTC
Wind: from the WSW (240 degrees) at 8 MPH (7 KT) (direction variable):0
Visibility: greater than 7 mile(s):0
Sky conditions: mostly cloudy
Temperature: 78 F (26 C)
Dew Point: 71 F (22 C)
Relative Humidity: 78%
Pressure (altimeter): 29.97 in. Hg (1015 hPa)
ob: UGSB 201000Z 24007KT 200V260 9999 FEW023 BKN040 26/22 Q1015 NOSIG
cycle: 10

Station Type Date Time Source
UGSB TAF 2019/08/20 06:04 UTC NOAA

TAF UGSB 200500Z 2006/2106 23008KT 9999 SCT016 BKN035 TX26/2011Z TN22/2102Z PROB40
TEMPO 2014/2019 VRB12KT 4000 TSRA SCT007 BKN020CB
TEMPO 2019/2104 13008KT 5000 RA BKN012

Example: see airport list